Time;durP1;ratioP1;P1;durP2;ratioP2;P2;SDS_P1;SDS_P2;PMS_P1;PMS_P2;Temp;Humidity;BMP_temperature;BMP_pressure;BME280_temperature;BME280_humidity;BME280_pressure;Samples;Min_cycle;Max_cycle;Signal;HPM_P1;HPM_P2
2021/03/15 00:00:28;;;;;;;28.13;15.18;;;;;;;1.17;75.20;95261.81;5015772;28;20413;-56
2021/03/15 00:02:56;;;;;;;33.28;17.88;;;;;;;1.18;75.26;95271.22;5010137;28;20144;-56
2021/03/15 00:05:24;;;;;;;26.10;15.32;;;;;;;1.16;75.00;95273.22;4992797;28;20045;-56
2021/03/15 00:07:51;;;;;;;24.65;15.85;;;;;;;1.15;75.31;95272.44;4980761;28;20053;-57
2021/03/15 00:10:19;;;;;;;30.70;17.88;;;;;;;1.13;75.43;95271.84;4999161;28;20061;-57
2021/03/15 00:12:47;;;;;;;25.38;16.50;;;;;;;1.14;74.93;95267.44;5009309;28;20053;-57
2021/03/15 00:15:17;;;;;;;22.83;14.73;;;;;;;1.21;75.16;95271.56;5004145;28;20053;-56
2021/03/15 00:17:45;;;;;;;21.05;14.02;;;;;;;1.22;74.89;95273.16;5019533;28;20570;-56
2021/03/15 00:20:16;;;;;;;22.95;13.95;;;;;;;1.23;74.38;95264.38;5020669;28;20072;-56
2021/03/15 00:22:45;;;;;;;14.18;12.50;;;;;;;1.22;74.64;95262.00;5003421;28;20868;-56
2021/03/15 00:25:14;;;;;;;23.92;12.82;;;;;;;1.21;74.80;95260.41;4991145;28;20045;-56
2021/03/15 00:27:42;;;;;;;20.60;13.98;;;;;;;1.22;74.59;95257.56;5007880;28;20570;-56
2021/03/15 00:30:12;;;;;;;16.15;11.40;;;;;;;1.25;74.59;95251.16;4977049;28;20060;-56
2021/03/15 00:32:40;;;;;;;21.25;12.65;;;;;;;1.28;74.11;95253.34;4994588;28;20045;-57
2021/03/15 00:35:10;;;;;;;21.40;13.05;;;;;;;1.32;74.50;95248.50;5014118;28;20512;-57
2021/03/15 00:37:38;;;;;;;16.58;11.85;;;;;;;1.36;74.31;95252.28;4987127;28;20773;-56
2021/03/15 00:40:08;;;;;;;19.63;12.27;;;;;;;1.33;73.71;95245.72;5016495;28;20053;-56
2021/03/15 00:42:35;;;;;;;20.08;12.05;;;;;;;1.38;74.17;95240.66;4995662;28;20045;-56
2021/03/15 00:45:07;;;;;;;21.48;12.77;;;;;;;1.38;74.30;95242.47;5017127;28;20054;-56
2021/03/15 00:47:34;;;;;;;18.58;13.18;;;;;;;1.40;73.89;95240.44;4984304;28;20041;-56
2021/03/15 00:50:08;;;;;;;31.50;17.73;;;;;;;1.34;74.92;95234.31;4992041;28;20454;-56
2021/03/15 00:52:35;;;;;;;20.13;12.50;;;;;;;1.32;74.91;95233.72;5003420;28;20057;-57
2021/03/15 00:55:03;;;;;;;15.73;11.48;;;;;;;1.36;74.26;95229.66;5005344;28;20049;-56
2021/03/15 00:57:31;;;;;;;19.73;11.85;;;;;;;1.40;74.38;95222.25;5016357;28;20402;-56
2021/03/15 00:59:59;;;;;;;17.75;12.35;;;;;;;1.36;74.64;95227.06;4988098;28;20041;-56
2021/03/15 01:02:41;;;;;;;20.90;13.20;;;;;;;1.32;74.69;95215.53;5004743;28;20045;-56
2021/03/15 01:05:12;;;;;;;15.70;12.52;;;;;;;1.34;74.30;95212.72;5013920;28;20474;-56
2021/03/15 01:07:39;;;;;;;19.45;11.95;;;;;;;1.32;74.68;95210.34;5018254;28;20056;-56
2021/03/15 01:10:11;;;;;;;20.40;12.70;;;;;;;1.29;74.73;95215.94;5022708;28;20045;-57
2021/03/15 01:12:41;;;;;;;16.67;11.55;;;;;;;1.29;74.42;95215.16;5020481;28;20045;-56
2021/03/15 01:15:10;;;;;;;18.33;12.32;;;;;;;1.33;74.13;95211.13;5012615;28;20056;-59
2021/03/15 01:17:44;;;;;;;19.60;11.23;;;;;;;1.31;74.38;95202.72;4977165;28;20049;-57
2021/03/15 01:20:13;;;;;;;16.30;12.00;;;;;;;1.29;74.33;95204.78;5011247;28;20041;-57
2021/03/15 01:22:40;;;;;;;16.02;12.10;;;;;;;1.27;74.60;95201.59;5019112;28;20053;-57
2021/03/15 01:25:08;;;;;;;16.52;12.02;;;;;;;1.34;74.55;95203.13;4984456;28;20050;-56
2021/03/15 01:27:36;;;;;;;19.25;12.93;;;;;;;1.39;74.45;95199.88;4995338;28;20049;-57
2021/03/15 01:30:09;;;;;;;18.20;11.57;;;;;;;1.44;74.41;95196.63;5007435;28;20425;-58
2021/03/15 01:32:37;;;;;;;20.77;12.98;;;;;;;1.43;74.27;95193.22;5004839;28;20048;-58
2021/03/15 01:35:06;;;;;;;14.75;12.43;;;;;;;1.49;74.13;95215.75;4997286;28;20062;-57
2021/03/15 01:37:34;;;;;;;24.92;13.88;;;;;;;1.49;74.51;95212.34;4989025;28;20062;-57
2021/03/15 01:40:04;;;;;;;19.98;14.25;;;;;;;1.48;73.91;95206.38;4990263;28;20552;-57
2021/03/15 01:42:31;;;;;;;20.05;13.30;;;;;;;1.49;73.80;95201.97;5017093;28;20050;-56
2021/03/15 01:44:58;;;;;;;21.75;14.43;;;;;;;1.40;74.47;95193.66;5017925;28;20054;-57
2021/03/15 01:47:25;;;;;;;19.88;13.68;;;;;;;1.38;74.49;95208.69;5009401;28;20045;-57
2021/03/15 01:49:53;;;;;;;17.77;13.00;;;;;;;1.45;74.11;95203.41;4976458;28;20053;-57
2021/03/15 01:52:21;;;;;;;17.42;12.07;;;;;;;1.48;74.19;95198.56;4989442;28;20052;-57
2021/03/15 01:54:49;;;;;;;18.50;13.68;;;;;;;1.50;73.53;95204.34;5019868;28;20065;-57
2021/03/15 01:57:16;;;;;;;17.33;12.77;;;;;;;1.57;72.92;95203.47;5009601;28;20061;-56
2021/03/15 01:59:44;;;;;;;18.33;13.63;;;;;;;1.62;72.83;95193.25;4999050;28;20053;-57
2021/03/15 02:02:13;;;;;;;17.42;12.88;;;;;;;1.67;72.59;95201.16;5013378;28;20057;-57
2021/03/15 02:04:40;;;;;;;18.48;12.57;;;;;;;1.71;72.21;95198.94;5021047;28;20042;-57
2021/03/15 02:07:26;;;;;;;21.02;14.02;;;;;;;1.84;71.37;95198.81;5021490;28;20061;-63
2021/03/15 02:09:53;;;;;;;20.70;13.35;;;;;;;1.92;71.89;95197.69;5010614;28;20133;-57
2021/03/15 02:13:01;;;;;;;20.42;13.57;;;;;;;2.00;70.43;95194.81;5011439;28;20481;-57
2021/03/15 02:15:40;;;;;;;20.83;13.48;;;;;;;2.07;70.90;95198.09;5021122;28;20088;-57
2021/03/15 02:18:24;;;;;;;20.25;13.25;;;;;;;2.07;70.32;95195.50;5009041;28;20057;-56
2021/03/15 02:20:52;;;;;;;20.30;14.85;;;;;;;2.11;70.74;95194.06;5012385;28;20054;-56
2021/03/15 02:23:34;;;;;;;31.33;18.52;;;;;;;2.14;70.67;95198.03;5000221;28;20045;-57
2021/03/15 02:26:17;;;;;;;26.30;16.08;;;;;;;2.08;71.39;95194.50;4984937;28;20061;-58
2021/03/15 02:29:13;;;;;;;23.98;16.17;;;;;;;2.05;71.30;95202.72;5020764;28;20046;-57
2021/03/15 02:32:29;;;;;;;20.85;12.82;;;;;;;2.04;71.06;95203.75;5022620;28;20052;-56
2021/03/15 02:35:09;;;;;;;16.98;11.82;;;;;;;2.02;70.71;95203.19;4965245;28;20053;-56
2021/03/15 02:38:04;;;;;;;19.60;11.88;;;;;;;2.01;70.47;95201.59;4995695;28;20053;-57
2021/03/15 02:40:36;;;;;;;18.20;11.50;;;;;;;2.03;70.52;95199.56;5014989;28;20050;-57
2021/03/15 02:43:08;;;;;;;14.20;11.23;;;;;;;2.05;70.33;95197.53;4985224;28;20045;-57
2021/03/15 02:45:37;;;;;;;17.80;11.65;;;;;;;2.04;70.32;95195.16;4986764;28;20045;-56
2021/03/15 02:48:09;;;;;;;15.95;12.27;;;;;;;2.06;70.03;95201.72;5011435;28;20076;-57
2021/03/15 02:50:41;;;;;;;16.65;12.23;;;;;;;2.09;70.07;95203.13;5011167;28;20541;-57
2021/03/15 02:53:15;;;;;;;17.83;12.25;;;;;;;2.14;68.76;95200.63;4975590;28;20433;-56
2021/03/15 02:55:48;;;;;;;16.48;11.57;;;;;;;2.18;69.14;95201.78;5014726;28;20049;-56
2021/03/15 02:58:18;;;;;;;17.38;11.93;;;;;;;2.22;69.39;95204.75;5000008;28;20058;-56
2021/03/15 03:00:46;;;;;;;18.92;12.63;;;;;;;2.20;69.13;95198.97;4993032;28;20136;-56
2021/03/15 03:03:20;;;;;;;20.98;12.85;;;;;;;2.20;69.94;95209.38;5007283;28;20053;-56
2021/03/15 03:05:51;;;;;;;16.20;12.07;;;;;;;2.19;69.16;95212.97;5017601;28;20065;-57
2021/03/15 03:08:20;;;;;;;22.27;13.55;;;;;;;2.15;69.55;95213.41;5023408;28;20041;-56
2021/03/15 03:10:50;;;;;;;21.13;13.95;;;;;;;2.14;69.93;95213.63;4993451;28;20632;-57
2021/03/15 03:13:18;;;;;;;19.55;12.90;;;;;;;2.13;70.35;95214.66;5010141;28;20045;-56
2021/03/15 03:15:47;;;;;;;20.90;13.45;;;;;;;2.13;69.93;95217.25;5014074;28;20053;-56
2021/03/15 03:18:17;;;;;;;16.50;11.48;;;;;;;2.05;70.03;95220.94;4997395;28;20068;-57
2021/03/15 03:20:53;;;;;;;20.98;13.10;;;;;;;2.06;70.38;95209.53;5006405;28;20052;-57
2021/03/15 03:23:24;;;;;;;23.70;14.85;;;;;;;2.00;70.07;95207.81;4993484;28;20414;-56
2021/03/15 03:25:55;;;;;;;21.60;13.35;;;;;;;2.03;70.29;95209.97;5015407;28;20505;-57
2021/03/15 03:28:27;;;;;;;18.90;12.95;;;;;;;2.08;69.77;95206.72;5007544;28;20501;-56
2021/03/15 03:31:00;;;;;;;17.50;11.70;;;;;;;2.10;69.12;95202.88;4992728;28;20607;-57
2021/03/15 03:33:28;;;;;;;20.65;13.95;;;;;;;2.16;68.89;95198.59;4999428;28;20516;-56
2021/03/15 03:35:55;;;;;;;23.23;13.15;;;;;;;2.19;68.98;95192.16;5007091;28;20136;-57
2021/03/15 03:38:39;;;;;;;16.23;13.20;;;;;;;2.24;68.34;95192.31;5011499;28;20061;-56
2021/03/15 03:41:09;;;;;;;17.15;12.35;;;;;;;2.28;68.14;95196.03;5020913;28;20045;-57
2021/03/15 03:43:38;;;;;;;18.33;12.25;;;;;;;2.30;68.25;95196.63;5006433;28;21044;-57
2021/03/15 03:46:06;;;;;;;19.88;13.02;;;;;;;2.30;68.58;95199.22;5013324;28;20049;-56
2021/03/15 03:48:36;;;;;;;19.02;12.27;;;;;;;2.26;68.55;95192.88;5015185;28;20049;-56
2021/03/15 03:51:05;;;;;;;19.60;12.80;;;;;;;2.24;69.04;95200.13;4989081;28;20041;-57
2021/03/15 03:53:44;;;;;;;25.77;14.82;;;;;;;2.19;69.85;95203.38;5011881;28;20568;-56
2021/03/15 03:56:14;;;;;;;20.88;15.43;;;;;;;2.17;70.13;95200.19;5009279;28;20069;-57
2021/03/15 03:58:47;;;;;;;21.85;14.02;;;;;;;2.15;69.57;95205.59;4973169;28;20053;-56
2021/03/15 04:01:16;;;;;;;20.95;13.80;;;;;;;2.17;69.73;95200.19;4978002;28;20061;-57
2021/03/15 04:03:53;;;;;;;22.30;13.45;;;;;;;2.19;69.49;95194.75;5004748;28;20041;-56
2021/03/15 04:06:24;;;;;;;18.60;12.60;;;;;;;2.24;68.59;95195.69;4990362;28;20053;-57
2021/03/15 04:09:13;;;;;;;14.00;11.25;;;;;;;2.30;68.00;95194.81;5002671;28;20041;-57
2021/03/15 04:11:46;;;;;;;16.52;11.60;;;;;;;2.32;68.23;95192.00;4994716;28;20046;-57
2021/03/15 04:14:19;;;;;;;18.73;13.43;;;;;;;2.34;68.07;95192.56;4972021;28;20061;-60
2021/03/15 04:16:49;;;;;;;16.00;11.23;;;;;;;2.34;67.83;95189.97;5012042;28;20667;-57
2021/03/15 04:19:25;;;;;;;18.33;12.45;;;;;;;2.37;67.71;95189.53;5000837;28;20041;-69
2021/03/15 04:21:58;;;;;;;19.02;12.55;;;;;;;2.34;67.89;95187.38;4989557;28;20049;-57
2021/03/15 04:24:27;;;;;;;18.33;12.52;;;;;;;2.40;67.57;95189.06;4994546;28;20069;-56
2021/03/15 04:26:56;;;;;;;15.57;12.75;;;;;;;2.42;67.60;95189.63;4999579;28;20504;-57
2021/03/15 04:29:26;;;;;;;16.33;11.73;;;;;;;2.43;67.16;95193.84;5014423;28;20042;-57
2021/03/15 04:31:54;;;;;;;19.38;12.18;;;;;;;2.45;67.11;95193.63;5001575;28;20042;-56
2021/03/15 04:34:22;;;;;;;17.25;10.88;;;;;;;2.44;67.13;95185.00;4985794;28;20058;-57
2021/03/15 04:36:50;;;;;;;22.08;13.50;;;;;;;2.46;66.84;95190.00;4990443;28;20636;-59
2021/03/15 04:39:27;;;;;;;19.00;13.77;;;;;;;2.47;67.03;95183.75;4983140;28;20152;-58
2021/03/15 04:41:55;;;;;;;19.33;13.40;;;;;;;2.48;66.62;95189.78;4999796;28;20041;-57
2021/03/15 04:44:24;;;;;;;19.25;13.15;;;;;;;2.46;66.85;95193.41;4986551;28;20046;-57
2021/03/15 04:46:53;;;;;;;18.38;13.35;;;;;;;2.44;67.31;95185.00;5000181;28;20133;-57
2021/03/15 04:49:23;;;;;;;21.98;11.77;;;;;;;2.48;67.33;95195.00;4996486;28;20143;-56
2021/03/15 04:51:51;;;;;;;18.52;12.25;;;;;;;2.47;66.87;95191.56;4999969;28;20080;-56
2021/03/15 04:54:19;;;;;;;20.02;12.55;;;;;;;2.48;67.00;95185.34;4996761;28;20576;-57
2021/03/15 04:56:48;;;;;;;23.13;13.45;;;;;;;2.45;67.47;95183.22;4987539;28;20050;-61
2021/03/15 04:59:18;;;;;;;20.52;13.25;;;;;;;2.42;67.46;95196.66;4995536;28;20061;-57
2021/03/15 05:01:47;;;;;;;27.63;14.70;;;;;;;2.40;68.12;95189.06;5001172;28;20042;-57
2021/03/15 05:04:19;;;;;;;22.55;14.40;;;;;;;2.42;67.89;95194.06;5002254;28;23140;-57
2021/03/15 05:06:47;;;;;;;26.65;17.50;;;;;;;2.34;68.93;95189.97;4992279;28;21319;-56
2021/03/15 05:09:16;;;;;;;16.15;13.40;;;;;;;2.33;68.03;95192.81;4998013;28;20049;-57
2021/03/15 05:11:43;;;;;;;16.77;11.77;;;;;;;2.33;67.80;95183.16;5002986;28;20946;-56
2021/03/15 05:14:11;;;;;;;19.42;13.63;;;;;;;2.37;67.81;95191.31;5003245;28;20609;-57
2021/03/15 05:16:41;;;;;;;25.77;17.50;;;;;;;2.35;68.19;95195.94;4992827;28;20053;-57
2021/03/15 05:19:11;;;;;;;23.35;17.98;;;;;;;2.36;68.17;95195.75;5000171;28;20060;-56
2021/03/15 05:21:40;;;;;;;21.30;15.27;;;;;;;2.40;68.07;95189.06;4999763;28;20897;-58
2021/03/15 05:24:12;;;;;;;21.95;14.90;;;;;;;2.44;67.60;95186.84;4973091;28;20042;-56
2021/03/15 05:26:41;;;;;;;23.33;14.57;;;;;;;2.46;67.47;95187.41;4996481;28;20049;-58
2021/03/15 05:29:11;;;;;;;21.27;14.15;;;;;;;2.48;67.69;95192.38;5013215;28;20045;-56
2021/03/15 05:31:43;;;;;;;22.85;14.48;;;;;;;2.42;67.80;95194.84;4999412;28;20046;-56
2021/03/15 05:34:12;;;;;;;20.83;14.38;;;;;;;2.50;67.30;95198.16;5004195;28;20133;-63
2021/03/15 05:36:40;;;;;;;22.70;15.68;;;;;;;2.54;67.58;95192.28;4998322;28;22819;-56
2021/03/15 05:39:07;;;;;;;24.65;17.00;;;;;;;2.50;67.67;95196.34;4999345;28;20738;-57
2021/03/15 05:42:00;;;;;;;21.98;16.05;;;;;;;2.48;68.28;95195.00;5004773;28;20073;-56
2021/03/15 05:44:57;;;;;;;21.60;15.30;;;;;;;2.50;67.36;95200.78;5001433;28;20064;-57
2021/03/15 05:47:55;;;;;;;24.75;15.27;;;;;;;2.48;67.69;95200.19;5003943;28;20544;-56
2021/03/15 05:50:35;;;;;;;23.30;15.35;;;;;;;2.51;67.63;95204.97;5017601;28;20054;-56
2021/03/15 05:53:10;;;;;;;24.05;16.38;;;;;;;2.49;68.06;95196.56;5001234;28;20526;-56
2021/03/15 05:56:14;;;;;;;24.67;17.70;;;;;;;2.49;68.06;95207.78;5008717;28;20038;-56
2021/03/15 05:59:16;;;;;;;25.05;17.45;;;;;;;2.50;67.97;95200.78;5014933;28;20065;-56
2021/03/15 06:02:26;;;;;;;24.60;17.15;;;;;;;2.53;68.23;95205.50;4999855;28;20514;-56
2021/03/15 06:05:30;;;;;;;21.73;14.38;;;;;;;2.60;66.55;95203.63;5014337;28;20045;-58
2021/03/15 06:08:15;;;;;;;19.98;15.02;;;;;;;2.64;66.76;95210.00;4964817;28;20042;-56
2021/03/15 06:11:06;;;;;;;22.88;16.13;;;;;;;2.65;67.56;95211.53;4998513;28;20034;-56
2021/03/15 06:13:35;;;;;;;21.70;15.70;;;;;;;2.70;67.29;95210.91;4982694;28;20050;-57
2021/03/15 06:16:04;;;;;;;23.02;16.92;;;;;;;2.75;68.10;95216.22;4992577;28;20048;-57
2021/03/15 06:18:33;;;;;;;22.33;18.33;;;;;;;2.74;67.88;95206.81;5006013;28;20659;-56
2021/03/15 06:21:00;;;;;;;23.90;17.20;;;;;;;2.82;67.40;95216.13;4996640;28;20045;-57
2021/03/15 06:23:29;;;;;;;25.65;17.15;;;;;;;2.84;67.66;95214.09;4996014;28;20117;-56
2021/03/15 06:25:57;;;;;;;20.45;13.68;;;;;;;2.94;66.60;95216.94;5016705;28;20077;-56
2021/03/15 06:28:25;;;;;;;18.38;13.88;;;;;;;3.07;66.69;95221.16;5001748;28;20080;-56
2021/03/15 06:30:53;;;;;;;21.95;13.63;;;;;;;3.19;65.84;95218.56;5004863;28;20053;-57
2021/03/15 06:33:22;;;;;;;15.30;13.35;;;;;;;3.27;65.30;95218.22;4996865;28;20057;-56
2021/03/15 06:35:56;;;;;;;20.15;12.88;;;;;;;3.36;64.52;95210.84;4997532;28;20768;-56
2021/03/15 06:38:24;;;;;;;17.52;12.57;;;;;;;3.46;63.59;95218.88;5010059;28;20057;-56
2021/03/15 06:41:00;;;;;;;15.65;10.95;;;;;;;3.56;63.42;95220.94;4994491;28;20046;-56
2021/03/15 06:43:27;;;;;;;21.10;12.73;;;;;;;3.64;62.96;95220.56;4974006;28;20053;-56
2021/03/15 06:45:55;;;;;;;14.57;11.10;;;;;;;3.65;62.51;95209.13;5005714;28;20054;-56
2021/03/15 06:48:24;;;;;;;13.73;11.35;;;;;;;3.68;62.37;95205.28;5005519;28;20406;-57
2021/03/15 06:50:54;;;;;;;16.80;11.80;;;;;;;3.66;62.14;95205.50;5000394;28;20517;-56
2021/03/15 06:53:22;;;;;;;17.27;10.70;;;;;;;3.66;62.10;95205.50;5011019;28;20057;-57
2021/03/15 06:55:51;;;;;;;14.70;11.30;;;;;;;3.66;62.00;95210.72;4991753;28;20494;-57
2021/03/15 06:58:25;;;;;;;15.65;12.15;;;;;;;3.59;62.39;95198.81;4999846;28;20062;-59
2021/03/15 07:01:14;;;;;;;16.25;10.48;;;;;;;3.65;61.76;95203.13;4987420;28;20048;-57
2021/03/15 07:03:44;;;;;;;15.52;10.73;;;;;;;3.66;61.30;95196.88;4988566;28;20061;-57
2021/03/15 07:06:12;;;;;;;15.77;10.88;;;;;;;3.65;61.62;95206.50;5003657;28;20056;-56
2021/03/15 07:08:40;;;;;;;17.70;10.82;;;;;;;3.66;61.28;95205.50;5017462;28;20095;-56
2021/03/15 07:11:21;;;;;;;15.25;11.23;;;;;;;3.77;61.32;95197.88;5008679;28;20042;-62
2021/03/15 07:13:48;;;;;;;15.10;10.35;;;;;;;3.82;61.47;95204.00;5014662;28;20054;-57
2021/03/15 07:16:30;;;;;;;20.15;11.30;;;;;;;3.89;61.25;95198.66;5007386;28;20069;-56
2021/03/15 07:19:21;;;;;;;14.73;9.57;;;;;;;3.93;60.86;95207.59;5017193;28;20419;-55
2021/03/15 07:21:48;;;;;;;15.18;9.30;;;;;;;3.96;60.39;95201.94;5017794;28;20038;-60
2021/03/15 07:24:16;;;;;;;13.43;9.43;;;;;;;4.05;59.50;95212.00;5008555;28;20034;-57
2021/03/15 07:26:44;;;;;;;12.95;8.32;;;;;;;4.04;58.99;95205.19;5020004;28;20053;-56
2021/03/15 07:29:15;;;;;;;11.18;9.30;;;;;;;4.14;59.28;95215.81;5000857;28;20058;-57
2021/03/15 07:31:44;;;;;;;13.65;8.32;;;;;;;4.15;58.86;95212.19;5016336;28;20046;-56
2021/03/15 07:34:15;;;;;;;15.85;10.25;;;;;;;4.17;59.70;95219.81;5031874;28;20046;-58
2021/03/15 07:36:52;;;;;;;11.93;9.10;;;;;;;4.22;58.94;95222.50;4989447;28;20049;-57
2021/03/15 07:39:21;;;;;;;10.07;8.48;;;;;;;4.20;57.56;95212.28;4999876;28;20690;-60
2021/03/15 07:41:51;;;;;;;12.10;8.35;;;;;;;4.24;57.56;95216.03;5000952;28;20057;-56
2021/03/15 07:44:29;;;;;;;13.68;8.77;;;;;;;4.26;58.22;95219.19;5009409;28;20041;-57
2021/03/15 07:47:01;;;;;;;13.05;8.32;;;;;;;4.39;58.17;95219.94;5006508;28;20610;-56
2021/03/15 07:49:36;;;;;;;14.65;10.02;;;;;;;4.41;57.50;95220.50;5027669;28;20050;-56
2021/03/15 07:52:09;;;;;;;12.63;10.20;;;;;;;4.31;57.46;95221.09;4968773;28;20038;-56
2021/03/15 07:54:38;;;;;;;13.35;9.77;;;;;;;4.31;58.26;95227.13;5007764;28;20049;-55
2021/03/15 07:57:11;;;;;;;13.05;8.95;;;;;;;4.34;58.05;95222.47;5011269;28;20058;-56
2021/03/15 07:59:43;;;;;;;15.93;10.73;;;;;;;4.34;58.11;95223.25;5011293;28;20057;-55
2021/03/15 08:02:16;;;;;;;21.98;11.57;;;;;;;4.35;58.21;95237.13;5008973;28;20054;-55
2021/03/15 08:04:46;;;;;;;16.25;9.60;;;;;;;4.33;57.82;95229.50;5010777;28;20054;-56
2021/03/15 08:07:16;;;;;;;15.75;10.35;;;;;;;4.29;57.59;95233.63;5004544;28;20046;-57
2021/03/15 08:09:47;;;;;;;13.23;9.30;;;;;;;4.38;58.27;95228.78;4989308;28;20046;-57
2021/03/15 08:12:16;;;;;;;14.35;10.73;;;;;;;4.40;58.09;95226.75;5004623;28;20048;-56
2021/03/15 08:14:47;;;;;;;16.13;10.13;;;;;;;4.42;58.08;95222.09;5008327;28;20432;-56
2021/03/15 08:17:19;;;;;;;14.10;9.50;;;;;;;4.41;57.73;95220.50;4996712;28;20041;-55
2021/03/15 08:19:48;;;;;;;15.52;9.60;;;;;;;4.24;57.21;95226.47;4994071;28;20045;-62
2021/03/15 08:22:28;;;;;;;12.68;9.68;;;;;;;4.11;56.84;95217.09;5011934;28;20042;-57
2021/03/15 08:24:58;;;;;;;12.43;9.82;;;;;;;4.26;57.54;95223.63;4996544;28;20061;-55
2021/03/15 08:27:28;;;;;;;13.10;10.00;;;;;;;4.42;57.25;95232.53;4986193;28;20085;-55
2021/03/15 08:29:59;;;;;;;10.68;8.70;;;;;;;4.39;55.50;95227.78;4998087;28;20045;-57
2021/03/15 08:32:30;;;;;;;13.50;10.20;;;;;;;4.46;56.17;95212.78;4996900;28;20050;-56
2021/03/15 08:34:58;;;;;;;15.05;9.43;;;;;;;4.36;56.07;95215.97;4995638;28;20050;-57
2021/03/15 08:38:01;;;;;;;15.05;9.60;;;;;;;4.52;55.98;95209.22;5008428;28;20080;-56
2021/03/15 08:40:41;;;;;;;14.52;10.05;;;;;;;4.66;55.83;95217.56;5012388;28;20481;-56
2021/03/15 08:43:21;;;;;;;10.35;8.15;;;;;;;4.73;54.02;95214.81;4996927;28;20064;-57
2021/03/15 08:45:53;;;;;;;9.48;8.48;;;;;;;4.72;53.59;95215.84;4992198;28;20046;-56
2021/03/15 08:48:40;;;;;;;11.00;8.50;;;;;;;4.66;54.22;95216.75;5007067;28;20065;-57
2021/03/15 08:51:09;;;;;;;10.52;8.95;;;;;;;4.69;53.69;95216.28;5000450;28;20054;-57
2021/03/15 08:53:37;;;;;;;10.52;8.98;;;;;;;4.71;53.67;95209.03;4985486;28;20061;-56
2021/03/15 08:56:05;;;;;;;12.98;9.00;;;;;;;4.61;53.95;95210.44;4984486;28;20076;-56
2021/03/15 08:58:41;;;;;;;12.80;9.18;;;;;;;4.60;53.71;95208.84;4988614;28;20064;-56
2021/03/15 09:01:10;;;;;;;14.82;9.70;;;;;;;4.74;54.37;95209.34;4996799;28;20340;-56
2021/03/15 09:03:58;;;;;;;14.60;9.40;;;;;;;4.94;53.76;95202.84;5010107;28;20042;-56
2021/03/15 09:06:39;;;;;;;10.52;8.07;;;;;;;5.09;52.49;95210.16;4998212;28;20053;-55
2021/03/15 09:09:24;;;;;;;12.60;9.48;;;;;;;5.10;52.68;95203.91;4992020;28;20050;-55
2021/03/15 09:11:53;;;;;;;12.55;9.75;;;;;;;5.30;52.49;95206.00;4989755;28;20710;-55
2021/03/15 09:14:22;;;;;;;15.25;9.20;;;;;;;5.38;51.80;95207.44;4993163;28;20663;-56
2021/03/15 09:16:53;;;;;;;12.70;7.97;;;;;;;5.30;49.94;95206.00;5009228;28;20095;-56
2021/03/15 09:19:27;;;;;;;10.35;7.68;;;;;;;5.12;49.26;95209.66;4998285;28;20061;-59
2021/03/15 09:21:56;;;;;;;9.55;7.30;;;;;;;5.24;50.25;95194.69;4997018;28;20075;-55
2021/03/15 09:24:38;;;;;;;12.95;8.68;;;;;;;5.37;49.43;95187.53;4996123;28;20050;-56
2021/03/15 09:27:10;;;;;;;13.27;7.22;;;;;;;5.22;50.58;95194.16;4996249;28;20796;-57
2021/03/15 09:29:39;;;;;;;11.15;8.32;;;;;;;5.21;50.22;95187.34;4989699;28;20057;-56
2021/03/15 09:32:10;;;;;;;11.45;7.78;;;;;;;5.19;50.71;95186.78;5007076;28;20049;-57
2021/03/15 09:34:38;;;;;;;10.90;7.97;;;;;;;5.19;50.58;95178.94;4999368;28;20057;-56
2021/03/15 09:37:05;;;;;;;12.27;8.45;;;;;;;5.13;51.14;95179.88;4988333;28;20061;-56
2021/03/15 09:39:33;;;;;;;12.23;8.48;;;;;;;5.21;50.19;95176.88;4977040;28;20058;-57
2021/03/15 09:42:01;;;;;;;12.00;8.75;;;;;;;5.26;49.79;95172.72;5012604;28;20464;-56
2021/03/15 09:44:32;;;;;;;13.13;9.18;;;;;;;5.34;50.03;95172.34;4993164;28;20061;-57
2021/03/15 09:47:00;;;;;;;10.77;8.35;;;;;;;5.26;50.18;95175.34;4997394;28;20045;-57
2021/03/15 09:49:43;;;;;;;10.50;7.72;;;;;;;5.29;48.79;95173.06;4997027;28;20041;-57
2021/03/15 09:52:24;;;;;;;12.15;7.80;;;;;;;5.47;47.67;95174.63;5014237;28;20053;-57
2021/03/15 09:55:04;;;;;;;8.93;7.47;;;;;;;5.50;47.98;95168.88;5001613;28;20046;-57
2021/03/15 09:57:33;;;;;;;12.88;8.45;;;;;;;5.72;48.07;95162.91;4987804;28;20065;-56
2021/03/15 10:00:19;;;;;;;9.55;7.82;;;;;;;6.02;48.11;95142.59;4971163;28;20406;-57
2021/03/15 10:03:07;;;;;;;13.95;7.55;;;;;;;6.05;44.74;95158.59;4990724;28;20061;-61
2021/03/15 10:06:04;;;;;;;10.10;7.13;;;;;;;6.09;46.44;95140.56;4973824;28;20062;-56
2021/03/15 10:08:54;;;;;;;12.70;8.40;;;;;;;6.30;46.61;95154.66;4972588;28;20057;-56
2021/03/15 10:11:54;;;;;;;11.70;8.23;;;;;;;6.42;43.69;95142.19;4993417;28;20073;-56
2021/03/15 10:14:24;;;;;;;10.43;7.60;;;;;;;6.37;44.69;95131.66;5016519;28;20049;-57
2021/03/15 10:17:10;;;;;;;13.75;7.68;;;;;;;6.47;46.08;95133.59;4998209;28;20068;-57
2021/03/15 10:19:47;;;;;;;9.13;7.38;;;;;;;6.63;45.15;95121.41;4978109;28;20053;-57
2021/03/15 10:22:18;;;;;;;11.32;8.35;;;;;;;6.77;46.74;95127.81;5021298;28;20072;-60
2021/03/15 10:24:50;;;;;;;10.55;8.98;;;;;;;6.98;47.05;95130.56;5012753;28;20057;-57
2021/03/15 10:27:28;;;;;;;12.18;8.48;;;;;;;7.12;46.49;95130.94;5001667;28;20046;-56
2021/03/15 10:30:08;;;;;;;12.27;8.77;;;;;;;7.28;45.53;95123.13;4994618;28;20052;-56
2021/03/15 10:32:42;;;;;;;15.63;9.77;;;;;;;7.27;45.77;95132.84;4994389;28;20049;-57
2021/03/15 10:35:12;;;;;;;11.63;8.77;;;;;;;7.16;45.49;95128.59;4979565;28;20056;-56
2021/03/15 10:38:04;;;;;;;16.48;10.13;;;;;;;7.08;45.09;95128.00;5002402;28;20037;-55
2021/03/15 10:40:42;;;;;;;13.80;9.50;;;;;;;6.87;45.96;95127.09;4993312;28;20409;-56
2021/03/15 10:43:19;;;;;;;13.70;10.13;;;;;;;6.91;46.59;95124.75;5015628;28;20545;-57
2021/03/15 10:45:49;;;;;;;14.05;9.93;;;;;;;6.95;46.63;95122.41;4997314;28;20413;-61
2021/03/15 10:48:17;;;;;;;17.95;10.48;;;;;;;6.84;47.18;95111.88;5022079;28;20613;-56
2021/03/15 10:50:58;;;;;;;12.30;9.75;;;;;;;6.95;47.50;95112.75;5014245;28;20408;-55
2021/03/15 10:53:52;;;;;;;14.43;9.55;;;;;;;7.31;46.55;95106.91;5014611;28;20052;-56
2021/03/15 10:56:37;;;;;;;13.10;9.80;;;;;;;7.53;44.37;95109.38;5013052;28;20052;-57
2021/03/15 10:59:32;;;;;;;12.43;9.20;;;;;;;7.48;44.15;95106.72;5012999;28;20053;-57
2021/03/15 11:02:05;;;;;;;15.05;10.32;;;;;;;7.45;45.83;95112.47;4991842;28;20049;-55
2021/03/15 11:04:41;;;;;;;10.93;8.80;;;;;;;7.45;45.13;95101.97;4994927;28;20425;-56
2021/03/15 11:07:20;;;;;;;12.65;8.30;;;;;;;7.24;44.25;95101.88;4994841;28;20079;-58
2021/03/15 11:10:12;;;;;;;13.18;8.98;;;;;;;7.14;45.53;95097.34;5014539;28;20053;-58
2021/03/15 11:12:52;;;;;;;10.43;8.23;;;;;;;7.23;44.80;95092.44;5001087;28;20053;-56
2021/03/15 11:15:31;;;;;;;10.15;8.43;;;;;;;7.29;45.01;95098.50;4995189;28;20041;-57
2021/03/15 11:18:12;;;;;;;22.65;8.68;;;;;;;7.27;45.00;95103.19;4991432;28;20042;-56
2021/03/15 11:20:58;;;;;;;11.18;8.20;;;;;;;7.28;44.37;95107.41;5013743;28;20064;-56
2021/03/15 11:23:52;;;;;;;13.27;8.13;;;;;;;6.85;44.58;95097.72;4977056;28;20057;-56
2021/03/15 11:27:03;;;;;;;11.18;8.68;;;;;;;6.72;44.64;95087.66;5019500;28;20054;-55
2021/03/15 11:29:44;;;;;;;11.02;7.35;;;;;;;6.58;45.48;95082.84;5007513;28;20064;-56
2021/03/15 11:32:41;;;;;;;9.75;8.07;;;;;;;6.54;45.65;95092.25;4991152;28;20828;-57
2021/03/15 11:35:24;;;;;;;10.07;7.95;;;;;;;6.40;44.80;95094.50;4999969;28;20045;-57
2021/03/15 11:38:11;;;;;;;8.18;6.45;;;;;;;6.23;44.65;95078.91;4994903;28;20049;-57
2021/03/15 11:40:53;;;;;;;10.73;7.57;;;;;;;6.38;45.56;95091.31;5018089;28;20053;-56
2021/03/15 11:43:21;;;;;;;11.02;7.28;;;;;;;6.50;44.58;95082.50;5015875;28;20117;-57
2021/03/15 11:45:58;;;;;;;10.60;7.50;;;;;;;6.49;44.79;95084.34;5012868;28;20178;-58
2021/03/15 11:48:26;;;;;;;15.80;8.63;;;;;;;6.57;45.38;95090.97;5006013;28;20505;-57
2021/03/15 11:51:01;;;;;;;11.05;7.47;;;;;;;6.52;44.05;95078.63;4980340;28;20053;-57
2021/03/15 11:53:40;;;;;;;16.48;8.30;;;;;;;6.59;44.49;95075.75;5000200;28;20057;-56
2021/03/15 11:56:07;;;;;;;9.52;7.68;;;;;;;6.65;45.09;95077.41;5000220;28;20048;-57
2021/03/15 11:58:35;;;;;;;14.05;7.63;;;;;;;6.67;44.32;95069.28;5018146;28;20057;-57
2021/03/15 12:01:04;;;;;;;10.45;6.57;;;;;;;6.83;43.51;95078.06;4992997;28;20563;-57